createdAt,value
2022-12-06T00:04:09.656Z,100027.28
2022-12-06T00:09:21.241Z,100028.16
2022-12-06T00:14:26.435Z,100015.84
2022-12-06T00:19:33.571Z,100019.38
2022-12-06T00:24:40.836Z,100022.00
2022-12-06T00:29:45.023Z,100021.09
2022-12-06T00:34:50.233Z,100030.94
2022-12-06T00:39:56.549Z,100027.09
2022-12-06T00:45:03.590Z,100033.91
2022-12-06T00:50:09.794Z,100036.34
2022-12-06T00:55:18.990Z,100040.66
2022-12-06T01:00:27.202Z,100048.50
2022-12-06T01:05:34.379Z,100048.22
2022-12-06T01:10:41.598Z,100056.94
2022-12-06T01:15:47.822Z,100044.81
2022-12-06T01:20:54.997Z,100053.56
2022-12-06T01:26:02.162Z,100064.19
2022-12-06T01:31:10.454Z,100065.97
2022-12-06T01:36:19.624Z,100069.31
2022-12-06T01:41:29.827Z,100079.78
2022-12-06T01:46:45.049Z,100070.84
2022-12-06T01:51:53.321Z,100081.34
2022-12-06T01:57:04.453Z,100089.13
2022-12-06T02:02:11.402Z,100082.13
2022-12-06T02:07:16.815Z,100082.72
2022-12-06T02:12:25.041Z,100084.56
2022-12-06T02:17:45.304Z,100087.53
2022-12-06T02:23:15.574Z,100106.28
2022-12-06T02:33:54.104Z,100106.84
2022-12-06T02:39:08.290Z,100115.63
2022-12-06T02:44:24.537Z,100122.50
2022-12-06T02:49:35.806Z,100133.13
2022-12-06T02:54:43.997Z,100128.00
2022-12-06T02:59:55.209Z,100124.28
2022-12-06T03:05:16.455Z,100133.44
2022-12-06T03:10:36.734Z,100132.81
2022-12-06T03:15:55.069Z,100136.09
2022-12-06T03:21:11.177Z,100143.72
2022-12-06T03:26:23.393Z,100147.66
2022-12-06T03:31:30.312Z,100145.53
2022-12-06T03:36:41.815Z,100141.91
2022-12-06T03:41:50.013Z,100142.72
2022-12-06T03:47:04.778Z,100147.09
2022-12-06T03:52:16.435Z,100143.53
2022-12-06T03:57:23.652Z,100144.47
2022-12-06T04:02:30.318Z,100146.81
2022-12-06T04:07:37.113Z,100156.44
2022-12-06T04:13:00.273Z,100156.38
2022-12-06T04:18:16.550Z,100161.47
2022-12-06T04:23:25.831Z,100162.41
2022-12-06T04:28:49.315Z,100161.75
2022-12-06T04:34:10.314Z,100162.28
2022-12-06T04:39:21.169Z,100166.97
2022-12-06T04:44:32.474Z,100168.19
2022-12-06T04:49:50.140Z,100167.31
2022-12-06T04:54:57.228Z,100161.31
2022-12-06T05:00:03.900Z,100172.53
2022-12-06T05:05:12.563Z,100178.25
2022-12-06T05:10:22.783Z,100183.72
2022-12-06T05:15:29.329Z,100184.50
2022-12-06T05:20:34.218Z,100180.00
2022-12-06T05:25:41.399Z,100185.28
2022-12-06T05:30:47.941Z,100187.69
2022-12-06T05:35:56.056Z,100187.66
2022-12-06T05:41:05.992Z,100199.81
2022-12-06T05:46:11.267Z,100199.81
2022-12-06T05:51:16.365Z,100204.25
2022-12-06T05:56:24.584Z,100205.31
2022-12-06T06:01:31.937Z,100205.44
2022-12-06T06:06:36.978Z,100220.44
2022-12-06T06:11:46.316Z,100219.63
2022-12-06T06:16:50.583Z,100226.66
2022-12-06T06:21:57.554Z,100227.53
2022-12-06T06:27:04.748Z,100231.81
2022-12-06T06:32:15.031Z,100231.69
2022-12-06T06:37:23.154Z,100237.88
2022-12-06T06:42:34.364Z,100238.81
2022-12-06T06:47:39.552Z,100241.44
2022-12-06T06:52:45.934Z,100237.88
2022-12-06T06:57:54.993Z,100240.56
2022-12-06T07:02:59.202Z,100249.34
2022-12-06T07:08:05.090Z,100246.56
2022-12-06T07:13:11.781Z,100245.84
2022-12-06T07:18:16.749Z,100260.81
2022-12-06T07:23:20.938Z,100267.66
2022-12-06T07:28:29.134Z,100276.44
2022-12-06T07:33:37.377Z,100265.16
2022-12-06T07:38:44.639Z,100279.22
2022-12-06T07:44:09.848Z,100281.41
2022-12-06T07:49:13.983Z,100284.19
2022-12-06T07:54:19.173Z,100283.41
2022-12-06T07:59:26.375Z,100284.41
2022-12-06T08:04:32.229Z,100296.41
2022-12-06T08:09:37.800Z,100295.06
2022-12-06T08:14:49.669Z,100299.22
2022-12-06T08:19:54.160Z,100312.47
2022-12-06T08:25:00.380Z,100313.97
2022-12-06T08:30:14.570Z,100316.91
2022-12-06T08:35:21.786Z,100325.06
2022-12-06T08:40:30.830Z,100332.09
2022-12-06T08:45:38.574Z,100338.47
2022-12-06T08:50:43.339Z,100345.94
2022-12-06T08:56:02.127Z,100351.34
2022-12-06T09:01:20.053Z,100362.81
2022-12-06T09:06:24.594Z,100364.91
2022-12-06T09:11:36.767Z,100376.53
2022-12-06T09:16:44.441Z,100391.34
2022-12-06T09:21:52.641Z,100392.94
2022-12-06T09:26:56.585Z,100409.28
2022-12-06T09:32:05.069Z,100416.94
2022-12-06T09:37:19.301Z,100421.44
2022-12-06T09:43:00.618Z,100426.09
2022-12-06T09:48:30.886Z,100428.91
2022-12-06T09:53:50.155Z,100442.91
2022-12-06T09:59:09.369Z,100438.28
2022-12-06T10:04:40.667Z,100438.50
2022-12-06T10:09:56.218Z,100438.72
2022-12-06T10:15:19.140Z,100446.22
2022-12-06T10:20:37.399Z,100455.41
2022-12-06T10:25:47.653Z,100463.22
2022-12-06T10:30:55.965Z,100464.34
2022-12-06T10:36:06.391Z,100471.88
2022-12-06T10:41:18.237Z,100479.28
2022-12-06T10:46:50.751Z,100479.06
2022-12-06T10:52:05.747Z,100480.28
2022-12-06T10:57:17.984Z,100472.97
2022-12-06T11:02:34.301Z,100470.69
2022-12-06T11:07:45.164Z,100462.25
2022-12-06T11:12:51.602Z,100446.66
2022-12-06T11:18:06.818Z,100445.19
2022-12-06T11:23:20.038Z,100431.53
2022-12-06T11:28:38.167Z,100431.56
2022-12-06T11:33:42.242Z,100423.84
2022-12-06T11:38:53.565Z,100421.81
2022-12-06T11:44:02.917Z,100420.16
2022-12-06T11:49:20.426Z,100416.56
2022-12-06T11:54:31.384Z,100411.47
2022-12-06T11:59:35.561Z,100400.03
2022-12-06T12:04:41.720Z,100405.09
2022-12-06T12:09:56.995Z,100396.59
2022-12-06T12:15:02.376Z,100390.59
2022-12-06T12:20:10.342Z,100393.31
2022-12-06T12:25:29.601Z,100382.44
2022-12-06T12:30:40.850Z,100376.06
2022-12-06T12:35:50.024Z,100371.19
2022-12-06T12:41:01.547Z,100370.03
2022-12-06T12:46:15.608Z,100357.44
2022-12-06T12:51:25.718Z,100358.50
2022-12-06T12:56:37.648Z,100351.69
2022-12-06T13:01:48.314Z,100353.03
2022-12-06T13:06:57.391Z,100338.00
2022-12-06T13:12:07.573Z,100343.13
2022-12-06T13:17:15.838Z,100340.41
2022-12-06T13:22:24.997Z,100343.91
2022-12-06T13:27:39.206Z,100341.94
2022-12-06T13:32:49.630Z,100333.63
2022-12-06T13:37:59.069Z,100336.28
2022-12-06T13:43:07.879Z,100334.13
2022-12-06T13:48:39.882Z,100330.97
2022-12-06T13:54:20.191Z,100329.09
2022-12-06T13:59:49.279Z,100325.50
2022-12-06T14:04:52.877Z,100326.53
2022-12-06T14:09:57.162Z,100321.75
2022-12-06T14:15:05.362Z,100329.34
2022-12-06T14:20:22.190Z,100326.53
2022-12-06T14:25:28.912Z,100318.31
2022-12-06T14:30:37.355Z,100308.22
2022-12-06T14:35:51.246Z,100313.28
2022-12-06T14:41:12.467Z,100308.06
2022-12-06T14:46:22.767Z,100309.75
2022-12-06T14:51:28.884Z,100319.56
2022-12-06T14:56:36.152Z,100313.09
2022-12-06T15:01:56.338Z,100315.06
2022-12-06T15:07:00.501Z,100313.78
2022-12-06T15:12:39.833Z,100318.47
2022-12-06T15:17:45.887Z,100316.00
2022-12-06T15:22:50.199Z,100323.69
2022-12-06T15:27:54.394Z,100315.66
2022-12-06T15:33:01.574Z,100326.25
2022-12-06T15:38:06.769Z,100328.91
2022-12-06T15:43:26.020Z,100333.25
2022-12-06T15:48:36.391Z,100335.81
2022-12-06T15:53:41.798Z,100335.88
2022-12-06T15:58:46.600Z,100333.63
2022-12-06T16:03:54.516Z,100339.72
2022-12-06T16:09:02.659Z,100338.16
2022-12-06T16:14:06.983Z,100330.63
2022-12-06T16:19:20.433Z,100331.22
2022-12-06T16:24:24.636Z,100331.06
2022-12-06T16:29:28.824Z,100336.19
2022-12-06T16:34:35.758Z,100351.03
2022-12-06T16:39:40.195Z,100351.84
2022-12-06T16:44:52.384Z,100350.31
2022-12-06T16:49:57.683Z,100356.50
2022-12-06T16:55:01.996Z,100362.59
2022-12-06T17:00:13.054Z,100361.97
2022-12-06T17:05:25.872Z,100356.06
2022-12-06T17:10:30.451Z,100363.59
2022-12-06T17:15:34.630Z,100363.75
2022-12-06T17:20:41.839Z,100358.38
2022-12-06T17:25:46.021Z,100355.59
2022-12-06T17:30:51.454Z,100360.72
2022-12-06T17:36:07.542Z,100359.50
2022-12-06T17:41:43.819Z,100349.22
2022-12-06T17:46:50.989Z,100345.94
2022-12-06T17:51:58.200Z,100357.44
2022-12-06T17:57:03.380Z,100357.31
2022-12-06T18:02:16.114Z,100355.50
2022-12-06T18:07:25.800Z,100368.78
2022-12-06T18:12:35.233Z,100360.13
2022-12-06T18:17:40.222Z,100358.13
2022-12-06T18:22:47.124Z,100351.13
2022-12-06T18:27:51.558Z,100352.75
2022-12-06T18:32:55.746Z,100354.66
2022-12-06T18:38:02.307Z,100352.44
2022-12-06T18:43:05.916Z,100355.94
2022-12-06T18:48:12.014Z,100365.94
2022-12-06T18:53:20.517Z,100369.03
2022-12-06T18:58:23.768Z,100360.63
2022-12-06T19:03:28.909Z,100369.41
2022-12-06T19:08:34.122Z,100363.41
2022-12-06T19:13:39.276Z,100370.84
2022-12-06T19:18:44.467Z,100365.63
2022-12-06T19:23:54.660Z,100372.19
2022-12-06T19:29:02.871Z,100366.56
2022-12-06T19:34:08.088Z,100370.47
2022-12-06T19:39:16.303Z,100375.28
2022-12-06T19:44:20.457Z,100373.59
2022-12-06T19:49:29.410Z,100379.78
2022-12-06T19:54:36.871Z,100377.03
2022-12-06T19:59:42.163Z,100378.72
2022-12-06T20:04:49.416Z,100373.50
2022-12-06T20:09:55.476Z,100380.56
2022-12-06T20:15:01.693Z,100381.63
2022-12-06T20:20:05.946Z,100383.50
2022-12-06T20:25:16.043Z,100386.97
2022-12-06T20:30:20.233Z,100381.56
2022-12-06T20:35:24.556Z,100390.16
2022-12-06T20:40:33.067Z,100388.47
2022-12-06T20:45:36.988Z,100395.28
2022-12-06T20:50:42.006Z,100393.34
2022-12-06T20:55:47.908Z,100397.91
2022-12-06T21:00:53.380Z,100403.69
2022-12-06T21:06:03.161Z,100408.56
2022-12-06T21:11:25.965Z,100403.81
2022-12-06T21:16:32.215Z,100404.06
2022-12-06T21:21:38.680Z,100413.66
2022-12-06T21:26:45.415Z,100422.69
2022-12-06T21:31:50.633Z,100420.38
2022-12-06T21:36:54.821Z,100407.69
2022-12-06T21:42:01.010Z,100422.28
2022-12-06T21:47:04.251Z,100416.47
2022-12-06T21:52:09.629Z,100420.19
2022-12-06T21:57:16.568Z,100416.28
2022-12-06T22:02:24.825Z,100410.69
2022-12-06T22:07:28.979Z,100403.81
2022-12-06T22:12:34.159Z,100403.91
2022-12-06T22:17:42.344Z,100407.06
2022-12-06T22:22:45.604Z,100407.19
2022-12-06T22:27:54.756Z,100406.88
2022-12-06T22:32:59.922Z,100396.34
2022-12-06T22:38:04.498Z,100394.69
2022-12-06T22:43:12.323Z,100385.97
2022-12-06T22:48:16.505Z,100380.09
2022-12-06T22:53:20.708Z,100395.59
2022-12-06T22:58:27.903Z,100385.09
2022-12-06T23:03:35.141Z,100375.28
2022-12-06T23:08:40.404Z,100365.81
2022-12-06T23:13:47.509Z,100363.41
2022-12-06T23:18:52.667Z,100376.03
2022-12-06T23:24:01.107Z,100366.47
2022-12-06T23:29:08.102Z,100365.63
2022-12-06T23:34:16.215Z,100347.75
2022-12-06T23:39:20.093Z,100350.91
2022-12-06T23:44:26.650Z,100351.38
2022-12-06T23:49:31.853Z,100346.63
2022-12-06T23:54:38.042Z,100347.59
2022-12-06T23:59:49.299Z,100338.19
